createdAt,value
2018-12-14T00:01:07.324Z,97734.69
2018-12-14T00:03:36.502Z,97732.17
2018-12-14T00:06:05.668Z,97735.37
2018-12-14T00:08:34.605Z,97732.50
2018-12-14T00:11:03.574Z,97738.59
2018-12-14T00:13:32.469Z,97731.30
2018-12-14T00:16:01.913Z,97736.53
2018-12-14T00:18:30.855Z,97733.68
2018-12-14T00:21:00.504Z,97733.99
2018-12-14T00:23:29.664Z,97732.13
2018-12-14T00:25:59.585Z,97732.17
2018-12-14T00:28:28.547Z,97729.45
2018-12-14T00:30:57.553Z,97726.40
2018-12-14T00:33:27.096Z,97730.63
2018-12-14T00:35:56.539Z,97738.59
2018-12-14T00:38:25.318Z,97741.09
2018-12-14T00:40:55.399Z,97747.86
2018-12-14T00:43:24.794Z,97746.50
2018-12-14T00:45:54.325Z,97750.07
2018-12-14T00:48:23.168Z,97755.30
2018-12-14T00:50:52.681Z,97748.85
2018-12-14T00:53:22.235Z,97750.72
2018-12-14T00:55:51.804Z,97755.62
2018-12-14T00:58:21.062Z,97759.02
2018-12-14T01:00:49.843Z,97759.55
2018-12-14T01:03:18.900Z,97764.97
2018-12-14T01:05:47.961Z,97763.42
2018-12-14T01:08:17.366Z,97765.81
2018-12-14T01:10:46.977Z,97766.80
2018-12-14T01:13:16.217Z,97768.16
2018-12-14T01:15:45.152Z,97764.61
2018-12-14T01:18:14.814Z,97756.33
2018-12-14T01:20:43.620Z,97756.47
2018-12-14T01:23:12.521Z,97757.84
2018-12-14T01:25:42.134Z,97763.60
2018-12-14T01:28:11.438Z,97760.41
2018-12-14T01:30:40.281Z,97766.31
2018-12-14T01:33:10.286Z,97765.11
2018-12-14T01:35:39.333Z,97757.33
2018-12-14T01:38:08.177Z,97764.75
2018-12-14T01:40:37.304Z,97767.30
2018-12-14T01:43:06.198Z,97769.69
2018-12-14T01:45:35.187Z,97772.20
2018-12-14T01:48:04.967Z,97774.44
2018-12-14T01:50:34.467Z,97773.08
2018-12-14T01:53:03.489Z,97779.19
2018-12-14T01:55:32.448Z,97778.33
2018-12-14T01:58:02.195Z,97770.72
2018-12-14T02:00:31.300Z,97771.04
2018-12-14T02:03:00.655Z,97763.25
2018-12-14T02:05:29.952Z,97768.50
2018-12-14T02:07:59.071Z,97764.78
2018-12-14T02:10:28.140Z,97768.14
2018-12-14T02:12:57.369Z,97772.23
2018-12-14T02:15:26.171Z,97772.42
2018-12-14T02:17:55.936Z,97766.15
2018-12-14T02:20:25.472Z,97774.27
2018-12-14T02:22:54.292Z,97774.27
2018-12-14T02:25:23.245Z,97769.84
2018-12-14T02:27:52.689Z,97771.36
2018-12-14T02:30:33.048Z,97775.08
2018-12-14T02:33:01.980Z,97769.86
2018-12-14T02:35:30.992Z,97760.20
2018-12-14T02:38:00.687Z,97764.42
2018-12-14T02:40:30.196Z,97757.81
2018-12-14T02:42:59.986Z,97755.64
2018-12-14T02:45:29.386Z,97746.14
2018-12-14T02:47:58.392Z,97748.85
2018-12-14T02:50:27.269Z,97753.63
2018-12-14T02:52:57.584Z,97755.15
2018-12-14T02:55:26.789Z,97752.95
2018-12-14T02:57:55.815Z,97751.94
2018-12-14T03:00:24.634Z,97755.81
2018-12-14T03:02:54.821Z,97754.98
2018-12-14T03:05:24.403Z,97750.73
2018-12-14T03:07:53.307Z,97749.72
2018-12-14T03:10:22.163Z,97752.23
2018-12-14T03:12:51.204Z,97750.23
2018-12-14T03:15:21.075Z,97750.07
2018-12-14T03:17:50.523Z,97747.52
2018-12-14T03:20:20.316Z,97747.88
2018-12-14T03:22:50.297Z,97750.08
2018-12-14T03:25:19.379Z,97756.18
2018-12-14T03:27:48.531Z,97751.25
2018-12-14T03:30:17.491Z,97750.72
2018-12-14T03:32:46.439Z,97753.27
2018-12-14T03:35:16.258Z,97747.36
2018-12-14T03:37:45.432Z,97755.80
2018-12-14T03:40:14.306Z,97750.05
2018-12-14T03:42:43.333Z,97747.18
2018-12-14T03:45:12.144Z,97750.05
2018-12-14T03:47:41.306Z,97747.80
2018-12-14T03:52:43.252Z,97739.92
2018-12-14T03:55:12.237Z,97740.10
2018-12-14T03:57:41.705Z,97744.33
2018-12-14T04:00:11.464Z,97747.19
2018-12-14T04:02:40.332Z,97744.47
2018-12-14T04:05:09.302Z,97742.78
2018-12-14T04:07:38.167Z,97744.31
2018-12-14T04:10:07.806Z,97742.80
2018-12-14T04:12:41.478Z,97741.40
2018-12-14T04:15:07.840Z,97738.56
2018-12-14T04:17:36.787Z,97736.19
2018-12-14T04:20:06.008Z,97744.98
2018-12-14T04:22:35.411Z,97734.86
2018-12-14T04:25:04.482Z,97739.92
2018-12-14T04:27:34.060Z,97736.36
2018-12-14T04:30:02.998Z,97736.52
2018-12-14T04:32:31.956Z,97733.33
2018-12-14T04:35:01.586Z,97738.91
2018-12-14T04:37:31.120Z,97744.81
2018-12-14T04:40:00.167Z,97748.06
2018-12-14T04:42:30.975Z,97748.38
2018-12-14T04:44:59.871Z,97754.30
2018-12-14T04:47:28.785Z,97750.23
2018-12-14T04:49:57.683Z,97748.02
2018-12-14T04:52:26.434Z,97747.36
2018-12-14T04:54:55.188Z,97753.12
2018-12-14T04:57:23.969Z,97753.63
2018-12-14T04:59:53.033Z,97751.41
2018-12-14T05:02:22.533Z,97757.32
2018-12-14T05:04:51.520Z,97756.31
2018-12-14T05:07:20.335Z,97756.14
2018-12-14T05:09:49.273Z,97751.91
2018-12-14T05:12:18.138Z,97755.14
2018-12-14T05:14:47.262Z,97761.38
2018-12-14T05:17:16.555Z,97755.63
2018-12-14T05:19:45.388Z,97755.44
2018-12-14T05:22:14.856Z,97758.65
2018-12-14T05:24:43.826Z,97758.46
2018-12-14T05:27:13.238Z,97758.99
2018-12-14T05:29:42.323Z,97757.94
2018-12-14T05:32:11.109Z,97763.73
2018-12-14T05:34:40.362Z,97753.28
2018-12-14T05:37:09.339Z,97759.55
2018-12-14T05:39:38.241Z,97761.42
2018-12-14T05:42:07.429Z,97759.05
2018-12-14T05:44:36.166Z,97759.56
2018-12-14T05:47:05.325Z,97760.57
2018-12-14T05:49:34.119Z,97763.47
2018-12-14T05:52:03.419Z,97764.67
2018-12-14T05:54:33.130Z,97770.59
2018-12-14T05:57:02.245Z,97772.61
2018-12-14T05:59:31.338Z,97771.27
2018-12-14T06:02:00.166Z,97772.94
2018-12-14T06:04:29.104Z,97767.72
2018-12-14T06:06:58.414Z,97769.58
2018-12-14T06:09:27.390Z,97773.47
2018-12-14T06:11:56.581Z,97773.67
2018-12-14T06:14:25.330Z,97772.14
2018-12-14T06:16:54.189Z,97775.37
2018-12-14T06:19:23.080Z,97779.59
2018-12-14T06:21:51.822Z,97779.26
2018-12-14T06:24:21.244Z,97780.95
2018-12-14T06:26:50.023Z,97784.00
2018-12-14T06:29:18.888Z,97788.89
2018-12-14T06:31:47.827Z,97787.53
2018-12-14T06:34:16.670Z,97784.83
2018-12-14T06:36:45.590Z,97787.73
2018-12-14T06:39:15.644Z,97789.39
2018-12-14T06:41:45.101Z,97790.23
2018-12-14T06:44:14.074Z,97791.58
2018-12-14T06:46:43.405Z,97791.20
2018-12-14T06:49:12.443Z,97791.03
2018-12-14T06:51:41.485Z,97792.58
2018-12-14T06:54:10.393Z,97796.98
2018-12-14T06:56:40.082Z,97796.45
2018-12-14T06:59:09.198Z,97799.67
2018-12-14T07:01:38.704Z,97797.13
2018-12-14T07:04:07.721Z,97809.02
2018-12-14T07:06:36.614Z,97809.86
2018-12-14T07:09:06.746Z,97812.92
2018-12-14T07:11:36.366Z,97816.11
2018-12-14T07:14:05.239Z,97826.61
2018-12-14T07:16:34.319Z,97822.71
2018-12-14T07:19:04.213Z,97822.88
2018-12-14T07:21:33.355Z,97831.88
2018-12-14T07:24:02.531Z,97829.69
2018-12-14T07:26:31.392Z,97829.54
2018-12-14T07:29:00.815Z,97834.28
2018-12-14T07:31:30.793Z,97837.48
2018-12-14T07:33:59.631Z,97836.98
2018-12-14T07:36:28.762Z,97840.73
2018-12-14T07:38:58.204Z,97842.07
2018-12-14T07:41:28.367Z,97850.22
2018-12-14T07:43:59.120Z,97844.45
2018-12-14T07:46:29.076Z,97849.18
2018-12-14T07:48:58.578Z,97848.85
2018-12-14T07:51:27.435Z,97853.94
2018-12-14T07:53:56.523Z,97852.06
2018-12-14T07:56:25.655Z,97855.56
2018-12-14T07:58:54.938Z,97856.89
2018-12-14T08:01:24.170Z,97862.95
2018-12-14T08:03:55.708Z,97870.38
2018-12-14T08:09:17.049Z,97882.02
2018-12-14T08:11:52.156Z,97880.48
2018-12-14T08:14:21.858Z,97880.48
2018-12-14T08:16:50.790Z,97883.19
2018-12-14T08:19:21.200Z,97888.38
2018-12-14T08:21:51.218Z,97893.41
2018-12-14T08:24:20.451Z,97889.98
2018-12-14T08:26:49.470Z,97895.53
2018-12-14T08:30:49.759Z,97904.46
2018-12-14T08:33:19.471Z,97898.78
2018-12-14T08:35:48.914Z,97900.92
2018-12-14T08:38:19.572Z,97898.64
2018-12-14T08:40:58.401Z,97905.39
2018-12-14T08:43:34.366Z,97906.39
2018-12-14T08:46:03.461Z,97903.99
2018-12-14T08:48:32.471Z,97908.42
2018-12-14T08:51:03.753Z,97911.63
2018-12-14T08:53:34.032Z,97909.27
2018-12-14T08:56:04.198Z,97913.35
2018-12-14T08:58:34.123Z,97910.95
2018-12-14T09:01:05.294Z,97912.05
2018-12-14T09:03:36.075Z,97914.15
2018-12-14T09:06:05.076Z,97916.48
2018-12-14T09:08:34.437Z,97922.66
2018-12-14T09:11:03.466Z,97923.44
2018-12-14T09:13:34.163Z,97929.98
2018-12-14T09:16:03.510Z,97929.41
2018-12-14T09:18:36.185Z,97940.50
2018-12-14T09:21:05.134Z,97939.77
2018-12-14T09:23:36.093Z,97942.98
2018-12-14T09:26:05.544Z,97944.78
2018-12-14T09:28:35.783Z,97943.48
2018-12-14T09:31:04.635Z,97945.59
2018-12-14T09:33:33.984Z,97950.44
2018-12-14T09:36:04.422Z,97955.30
2018-12-14T09:38:35.107Z,97953.53
2018-12-14T09:41:04.741Z,97956.77
2018-12-14T09:43:35.016Z,97959.83
2018-12-14T09:46:04.598Z,97968.38
2018-12-14T09:48:33.930Z,97963.38
2018-12-14T09:51:05.468Z,97964.16
2018-12-14T09:53:36.259Z,97964.80
2018-12-14T09:56:07.196Z,97961.32
2018-12-14T09:58:36.937Z,97961.95
2018-12-14T10:01:07.311Z,97957.87
2018-12-14T10:03:39.599Z,97963.95
2018-12-14T10:06:15.526Z,97961.92
2018-12-14T10:08:40.395Z,97963.91
2018-12-14T10:11:14.121Z,97966.75
2018-12-14T10:13:44.254Z,97960.86
2018-12-14T10:16:16.286Z,97961.03
2018-12-14T10:18:47.787Z,97963.06
2018-12-14T10:21:19.116Z,97963.56
2018-12-14T10:23:55.893Z,97954.68
2018-12-14T10:26:29.534Z,97950.14
2018-12-14T10:28:59.032Z,97952.27
2018-12-14T10:31:38.300Z,97950.34
2018-12-14T10:34:08.794Z,97946.88
2018-12-14T10:36:38.005Z,97941.34
2018-12-14T10:39:09.308Z,97944.88
2018-12-14T10:41:39.507Z,97941.69
2018-12-14T10:44:08.451Z,97935.44
2018-12-14T10:46:38.442Z,97932.53
2018-12-14T10:49:09.175Z,97931.81
2018-12-14T10:51:42.635Z,97935.16
2018-12-14T10:54:12.657Z,97929.55
2018-12-14T10:56:42.895Z,97924.16
2018-12-14T10:59:13.294Z,97925.25
2018-12-14T11:01:47.567Z,97925.30
2018-12-14T11:04:17.944Z,97921.86
2018-12-14T11:06:49.572Z,97919.02
2018-12-14T11:09:20.379Z,97914.62
2018-12-14T11:11:50.914Z,97914.41
2018-12-14T11:14:21.437Z,97906.67
2018-12-14T11:16:50.521Z,97911.13
2018-12-14T11:19:21.179Z,97907.59
2018-12-14T11:21:56.440Z,97914.38
2018-12-14T11:24:26.661Z,97909.83
2018-12-14T11:26:56.438Z,97914.66
2018-12-14T11:29:25.543Z,97911.50
2018-12-14T11:31:54.637Z,97914.73
2018-12-14T11:34:29.715Z,97914.52
2018-12-14T11:36:57.544Z,97914.20
2018-12-14T11:39:26.935Z,97912.67
2018-12-14T11:41:55.670Z,97910.01
2018-12-14T11:44:25.399Z,97917.42
2018-12-14T11:46:54.385Z,97913.88
2018-12-14T11:49:23.281Z,97916.39
2018-12-14T11:51:52.304Z,97919.27
2018-12-14T11:54:24.140Z,97919.27
2018-12-14T11:56:54.209Z,97919.41
2018-12-14T11:59:23.562Z,97912.53
2018-12-14T12:01:52.366Z,97919.55
2018-12-14T12:04:21.794Z,97912.60
2018-12-14T12:06:51.318Z,97917.85
2018-12-14T12:09:21.951Z,97917.42
2018-12-14T12:11:50.722Z,97918.42
2018-12-14T12:14:19.826Z,97917.42
2018-12-14T12:16:48.659Z,97908.62
2018-12-14T12:19:17.839Z,97915.02
2018-12-14T12:21:49.954Z,97907.09
2018-12-14T12:24:19.248Z,97907.31
2018-12-14T12:26:48.455Z,97912.84
2018-12-14T12:29:17.585Z,97914.73
2018-12-14T12:31:48.218Z,97911.32
2018-12-14T12:34:17.238Z,97917.21
2018-12-14T12:36:46.714Z,97919.45
2018-12-14T12:39:15.802Z,97919.41
2018-12-14T12:41:44.742Z,97916.61
2018-12-14T12:44:14.276Z,97915.41
2018-12-14T12:46:43.211Z,97918.77
2018-12-14T12:49:12.370Z,97922.14
2018-12-14T12:51:42.190Z,97924.31
2018-12-14T12:54:17.775Z,97922.29
2018-12-14T12:56:47.134Z,97928.70
2018-12-14T12:59:15.992Z,97928.03
2018-12-14T13:01:45.257Z,97923.56
2018-12-14T13:04:16.084Z,97924.45
2018-12-14T13:06:47.451Z,97927.64
2018-12-14T13:09:16.586Z,97922.85
2018-12-14T13:11:45.501Z,97923.84
2018-12-14T13:17:04.301Z,97919.30
2018-12-14T13:19:35.094Z,97923.56
2018-12-14T13:22:04.450Z,97916.46
2018-12-14T13:24:33.853Z,97922.64
2018-12-14T13:27:03.816Z,97921.75
2018-12-14T13:29:33.354Z,97922.61
2018-12-14T13:32:02.446Z,97926.05
2018-12-14T13:34:31.563Z,97925.55
2018-12-14T13:37:00.408Z,97923.10
2018-12-14T13:39:29.815Z,97931.44
2018-12-14T13:41:58.815Z,97929.63
2018-12-14T13:44:28.153Z,97930.48
2018-12-14T13:46:57.165Z,97941.38
2018-12-14T13:49:26.338Z,97947.59
2018-12-14T13:51:55.282Z,97950.56
2018-12-14T13:54:25.078Z,97953.91
2018-12-14T13:56:55.093Z,97960.58
2018-12-14T13:59:24.282Z,97955.67
2018-12-14T14:01:53.759Z,97967.21
2018-12-14T14:04:22.654Z,97969.30
2018-12-14T14:06:51.807Z,97971.36
2018-12-14T14:09:21.350Z,97967.70
2018-12-14T14:11:50.265Z,97964.66
2018-12-14T14:14:22.048Z,97961.81
2018-12-14T14:16:53.352Z,97965.97
2018-12-14T14:19:24.131Z,97976.55
2018-12-14T14:21:53.359Z,97977.26
2018-12-14T14:24:22.773Z,97979.53
2018-12-14T14:26:51.906Z,97980.63
2018-12-14T14:29:22.625Z,97981.08
2018-12-14T14:31:52.806Z,97983.92
2018-12-14T14:34:21.789Z,97992.41
2018-12-14T14:36:52.499Z,97994.21
2018-12-14T14:39:21.375Z,97996.63
2018-12-14T14:41:50.462Z,98002.77
2018-12-14T14:44:19.694Z,98003.16
2018-12-14T14:46:48.980Z,98004.37
2018-12-14T14:49:17.859Z,98005.89
2018-12-14T14:51:47.261Z,98003.91
2018-12-14T14:54:16.803Z,98008.77
2018-12-14T14:56:45.548Z,98010.11
2018-12-14T14:59:14.555Z,98008.23
2018-12-14T15:01:43.443Z,98010.72
2018-12-14T15:04:12.189Z,98009.38
2018-12-14T15:06:41.755Z,98011.15
2018-12-14T15:09:12.166Z,98004.92
2018-12-14T15:11:41.098Z,98009.28
2018-12-14T15:14:10.250Z,98008.47
2018-12-14T15:16:39.235Z,98012.41
2018-12-14T15:19:09.169Z,98016.05
2018-12-14T15:21:38.870Z,98015.19
2018-12-14T15:24:08.213Z,98018.28
2018-12-14T15:26:37.210Z,98018.72
2018-12-14T15:29:06.635Z,98026.25
2018-12-14T15:31:35.667Z,98023.52
2018-12-14T15:34:04.690Z,98029.73
2018-12-14T15:36:33.471Z,98029.78
2018-12-14T15:39:02.203Z,98033.73
2018-12-14T15:41:32.085Z,98032.72
2018-12-14T15:44:00.845Z,98027.33
2018-12-14T15:46:30.018Z,98031.92
2018-12-14T15:48:58.767Z,98032.34
2018-12-14T15:51:27.794Z,98039.48
2018-12-14T15:53:56.738Z,98038.53
2018-12-14T15:56:25.502Z,98039.41
2018-12-14T15:58:54.986Z,98046.62
2018-12-14T16:01:23.975Z,98043.16
2018-12-14T16:03:53.154Z,98044.08
2018-12-14T16:06:21.915Z,98046.55
2018-12-14T16:08:50.801Z,98054.05
2018-12-14T16:11:21.551Z,98055.67
2018-12-14T16:13:51.238Z,98054.97
2018-12-14T16:16:20.075Z,98057.08
2018-12-14T16:18:49.218Z,98058.84
2018-12-14T16:21:18.276Z,98049.63
2018-12-14T16:23:48.088Z,98049.65
2018-12-14T16:26:17.183Z,98049.87
2018-12-14T16:28:46.268Z,98050.66
2018-12-14T16:31:15.930Z,98055.19
2018-12-14T16:33:45.431Z,98049.15
2018-12-14T16:36:14.374Z,98053.20
2018-12-14T16:38:44.326Z,98044.64
2018-12-14T16:41:14.169Z,98048.34
2018-12-14T16:43:42.915Z,98047.44
2018-12-14T16:46:12.591Z,98043.30
2018-12-14T16:48:43.099Z,98040.91
2018-12-14T16:54:44.430Z,98042.67
2018-12-14T16:57:13.330Z,98044.41
2018-12-14T16:59:42.822Z,98044.41
2018-12-14T17:02:12.390Z,98053.13
2018-12-14T17:04:42.002Z,98053.80
2018-12-14T17:07:12.042Z,98061.15
2018-12-14T17:09:42.100Z,98059.95
2018-12-14T17:12:11.314Z,98059.66
2018-12-14T17:14:40.780Z,98060.31
2018-12-14T17:17:09.851Z,98064.07
2018-12-14T17:19:39.030Z,98065.97
2018-12-14T17:22:09.027Z,98067.63
2018-12-14T17:24:41.301Z,98076.80
2018-12-14T17:27:10.626Z,98080.91
2018-12-14T17:29:41.858Z,98084.00
2018-12-14T17:32:12.017Z,98087.56
2018-12-14T17:34:41.192Z,98088.41
2018-12-14T17:37:10.548Z,98089.77
2018-12-14T17:39:40.469Z,98089.62
2018-12-14T17:42:09.731Z,98100.59
2018-12-14T17:44:39.926Z,98100.48
2018-12-14T17:47:09.918Z,98099.83
2018-12-14T17:49:39.348Z,98105.95
2018-12-14T17:52:15.610Z,98111.59
2018-12-14T17:54:45.870Z,98111.59
2018-12-14T17:57:15.084Z,98107.02
2018-12-14T17:59:45.608Z,98106.36
2018-12-14T18:02:15.228Z,98108.23
2018-12-14T18:04:44.711Z,98115.03
2018-12-14T18:07:14.422Z,98114.34
2018-12-14T18:09:45.134Z,98122.66
2018-12-14T18:12:14.448Z,98126.06
2018-12-14T18:14:43.335Z,98119.95
2018-12-14T18:17:12.209Z,98129.97
2018-12-14T18:19:44.185Z,98127.42
2018-12-14T18:22:15.496Z,98142.86
2018-12-14T18:24:44.642Z,98141.00
2018-12-14T18:27:17.133Z,98146.23
2018-12-14T18:29:47.587Z,98144.75
2018-12-14T18:32:17.362Z,98147.31
2018-12-14T18:34:47.134Z,98145.27
2018-12-14T18:37:24.377Z,98150.69
2018-12-14T18:39:54.280Z,98154.59
2018-12-14T18:42:26.948Z,98154.75
2018-12-14T18:45:01.084Z,98154.59
2018-12-14T18:48:32.968Z,98162.41
2018-12-14T18:51:01.721Z,98163.61
2018-12-14T18:53:30.770Z,98166.48
2018-12-14T18:56:00.222Z,98164.27
2018-12-14T18:58:30.373Z,98160.05
2018-12-14T19:01:01.395Z,98169.19
2018-12-14T19:03:32.372Z,98166.98
2018-12-14T19:06:01.620Z,98168.02
2018-12-14T19:08:31.094Z,98167.20
2018-12-14T19:11:00.302Z,98173.98
2018-12-14T19:13:29.146Z,98176.85
2018-12-14T19:15:59.765Z,98179.59
2018-12-14T19:18:29.175Z,98182.81
2018-12-14T19:20:58.044Z,98187.73
2018-12-14T19:23:27.095Z,98193.31
2018-12-14T19:25:56.571Z,98186.02
2018-12-14T19:28:26.485Z,98188.92
2018-12-14T19:30:55.433Z,98184.52
2018-12-14T19:33:24.854Z,98197.56
2018-12-14T19:35:54.221Z,98194.34
2018-12-14T19:38:24.090Z,98201.47
2018-12-14T19:40:53.676Z,98198.61
2018-12-14T19:43:22.637Z,98202.48
2018-12-14T19:45:51.880Z,98202.33
2018-12-14T19:48:22.759Z,98203.02
2018-12-14T19:50:51.638Z,98205.73
2018-12-14T19:53:20.797Z,98205.07
2018-12-14T19:55:51.312Z,98203.68
2018-12-14T19:58:21.154Z,98207.24
2018-12-14T20:00:55.033Z,98202.83
2018-12-14T20:03:23.947Z,98208.09
2018-12-14T20:05:53.464Z,98210.27
2018-12-14T20:08:22.395Z,98205.54
2018-12-14T20:10:51.185Z,98205.73
2018-12-14T20:13:23.030Z,98204.38
2018-12-14T20:15:57.522Z,98204.56
2018-12-14T20:18:23.657Z,98208.79
2018-12-14T20:20:53.649Z,98214.69
2018-12-14T20:23:23.481Z,98210.27
2018-12-14T20:25:53.080Z,98207.09
2018-12-14T20:28:22.340Z,98211.19
2018-12-14T20:30:51.704Z,98206.27
2018-12-14T20:33:20.850Z,98204.41
2018-12-14T20:35:51.168Z,98203.37
2018-12-14T20:38:20.337Z,98202.70
2018-12-14T20:40:50.206Z,98200.66
2018-12-14T20:43:20.429Z,98196.94
2018-12-14T20:45:50.146Z,98197.44
2018-12-14T20:48:19.790Z,98192.36
2018-12-14T20:50:50.056Z,98190.50
2018-12-14T20:53:19.387Z,98187.79
2018-12-14T20:55:49.077Z,98194.41
2018-12-14T20:58:20.612Z,98192.20
2018-12-14T21:00:50.638Z,98192.52
2018-12-14T21:03:19.967Z,98185.08
2018-12-14T21:05:48.772Z,98185.80
2018-12-14T21:08:18.126Z,98183.41
2018-12-14T21:10:49.093Z,98181.39
2018-12-14T21:13:22.043Z,98175.77
2018-12-14T21:15:53.830Z,98175.77
2018-12-14T21:18:23.883Z,98173.88
2018-12-14T21:20:56.232Z,98176.62
2018-12-14T21:23:27.115Z,98179.31
2018-12-14T21:26:02.097Z,98178.80
2018-12-14T21:28:31.567Z,98176.59
2018-12-14T21:31:03.580Z,98181.52
2018-12-14T21:33:33.654Z,98184.26
2018-12-14T21:36:03.288Z,98179.66
2018-12-14T21:38:33.372Z,98182.39
2018-12-14T21:41:04.001Z,98181.83
2018-12-14T21:43:34.912Z,98180.16
2018-12-14T21:46:06.076Z,98188.80
2018-12-14T21:48:36.455Z,98186.41
2018-12-14T21:51:07.081Z,98183.31
2018-12-14T21:53:37.549Z,98174.48
2018-12-14T21:56:06.897Z,98183.62
2018-12-14T21:58:36.716Z,98178.20
2018-12-14T22:01:05.463Z,98181.84
2018-12-14T22:03:34.196Z,98177.78
2018-12-14T22:06:04.387Z,98175.77
2018-12-14T22:08:33.368Z,98172.98
2018-12-14T22:11:02.461Z,98177.36
2018-12-14T22:13:31.588Z,98173.13
2018-12-14T22:16:01.862Z,98171.23
2018-12-14T22:18:31.844Z,98161.75
2018-12-14T22:21:01.830Z,98161.35
2018-12-14T22:23:31.278Z,98167.20
2018-12-14T22:26:00.348Z,98170.09
2018-12-14T22:28:30.876Z,98162.98
2018-12-14T22:31:00.633Z,98162.08
2018-12-14T22:33:29.630Z,98160.48
2018-12-14T22:35:58.473Z,98165.44
2018-12-14T22:38:27.909Z,98166.73
2018-12-14T22:40:56.824Z,98162.78
2018-12-14T22:43:26.636Z,98162.27
2018-12-14T22:45:56.778Z,98154.10
2018-12-14T22:48:27.817Z,98152.23
2018-12-14T22:50:58.390Z,98148.63
2018-12-14T22:53:28.272Z,98150.78
2018-12-14T22:55:57.156Z,98159.25
2018-12-14T22:58:29.764Z,98153.40
2018-12-14T23:00:59.494Z,98156.70
2018-12-14T23:03:29.703Z,98156.66
2018-12-14T23:06:01.420Z,98153.19
2018-12-14T23:08:30.386Z,98164.02
2018-12-14T23:11:01.196Z,98162.70
2018-12-14T23:13:31.414Z,98163.71
2018-12-14T23:16:00.917Z,98163.25
2018-12-14T23:18:30.096Z,98168.99
2018-12-14T23:20:59.805Z,98166.61
2018-12-14T23:23:28.915Z,98177.56
2018-12-14T23:25:57.741Z,98175.84
2018-12-14T23:28:26.900Z,98180.55
2018-12-14T23:30:55.851Z,98177.64
2018-12-14T23:33:25.450Z,98172.73
2018-12-14T23:35:54.820Z,98176.77
2018-12-14T23:38:23.776Z,98185.33
2018-12-14T23:40:53.158Z,98183.34
2018-12-14T23:43:37.787Z,98180.92
2018-12-14T23:48:46.516Z,98178.55
2018-12-14T23:51:16.194Z,98184.03
2018-12-14T23:53:45.392Z,98185.55
2018-12-14T23:56:14.312Z,98185.73
2018-12-14T23:58:43.446Z,98188.76
